sensor_id;sensor_type;location;lat;lon;timestamp;P1;durP1;ratioP1;P2;durP2;ratioP2
74100;SDS011;62462;52.530;21.682;2022-10-17T00:01:11;16.75;;;11.45;;
74100;SDS011;62462;52.530;21.682;2022-10-17T00:03:37;17.83;;;12.07;;
74100;SDS011;62462;52.530;21.682;2022-10-17T00:06:05;18.02;;;12.43;;
74100;SDS011;62462;52.530;21.682;2022-10-17T00:08:32;15.48;;;12.25;;
74100;SDS011;62462;52.530;21.682;2022-10-17T00:10:58;18.92;;;12.35;;
74100;SDS011;62462;52.530;21.682;2022-10-17T00:13:26;16.88;;;11.55;;
74100;SDS011;62462;52.530;21.682;2022-10-17T00:15:52;17.85;;;11.82;;
74100;SDS011;62462;52.530;21.682;2022-10-17T00:18:18;16.80;;;11.43;;
74100;SDS011;62462;52.530;21.682;2022-10-17T00:20:44;19.15;;;11.45;;
74100;SDS011;62462;52.530;21.682;2022-10-17T00:23:10;18.58;;;11.80;;
74100;SDS011;62462;52.530;21.682;2022-10-17T00:25:36;17.17;;;11.60;;
74100;SDS011;62462;52.530;21.682;2022-10-17T00:28:01;19.42;;;11.90;;
74100;SDS011;62462;52.530;21.682;2022-10-17T00:30:28;19.70;;;12.23;;
74100;SDS011;62462;52.530;21.682;2022-10-17T00:32:54;16.73;;;11.90;;
74100;SDS011;62462;52.530;21.682;2022-10-17T00:35:19;18.10;;;12.05;;
74100;SDS011;62462;52.530;21.682;2022-10-17T00:37:45;16.80;;;11.63;;
74100;SDS011;62462;52.530;21.682;2022-10-17T00:40:11;17.20;;;11.20;;
74100;SDS011;62462;52.530;21.682;2022-10-17T00:42:37;15.63;;;11.43;;
74100;SDS011;62462;52.530;21.682;2022-10-17T00:45:14;19.60;;;12.68;;
74100;SDS011;62462;52.530;21.682;2022-10-17T00:47:43;18.50;;;11.48;;
74100;SDS011;62462;52.530;21.682;2022-10-17T00:50:12;16.25;;;11.75;;
74100;SDS011;62462;52.530;21.682;2022-10-17T00:52:39;16.75;;;11.20;;
74100;SDS011;62462;52.530;21.682;2022-10-17T00:55:11;16.75;;;11.13;;
74100;SDS011;62462;52.530;21.682;2022-10-17T00:57:48;19.50;;;11.52;;
74100;SDS011;62462;52.530;21.682;2022-10-17T01:00:16;17.35;;;12.40;;
74100;SDS011;62462;52.530;21.682;2022-10-17T01:02:42;18.73;;;11.13;;
74100;SDS011;62462;52.530;21.682;2022-10-17T01:05:08;17.90;;;11.65;;
74100;SDS011;62462;52.530;21.682;2022-10-17T01:07:35;16.00;;;11.38;;
74100;SDS011;62462;52.530;21.682;2022-10-17T01:10:02;19.35;;;12.48;;
74100;SDS011;62462;52.530;21.682;2022-10-17T01:15:08;18.05;;;11.57;;
74100;SDS011;62462;52.530;21.682;2022-10-17T01:25:52;15.98;;;11.43;;
74100;SDS011;62462;52.530;21.682;2022-10-17T01:34:07;16.08;;;10.60;;
74100;SDS011;62462;52.530;21.682;2022-10-17T01:36:43;15.18;;;10.77;;
74100;SDS011;62462;52.530;21.682;2022-10-17T01:41:57;18.65;;;11.77;;
74100;SDS011;62462;52.530;21.682;2022-10-17T01:44:35;16.90;;;10.93;;
74100;SDS011;62462;52.530;21.682;2022-10-17T01:47:12;14.40;;;10.75;;
74100;SDS011;62462;52.530;21.682;2022-10-17T01:49:45;16.52;;;11.27;;
74100;SDS011;62462;52.530;21.682;2022-10-17T01:52:14;17.02;;;11.85;;
74100;SDS011;62462;52.530;21.682;2022-10-17T01:54:55;21.35;;;12.95;;
74100;SDS011;62462;52.530;21.682;2022-10-17T01:57:35;18.73;;;12.63;;
74100;SDS011;62462;52.530;21.682;2022-10-17T02:00:12;19.13;;;11.93;;
74100;SDS011;62462;52.530;21.682;2022-10-17T02:02:42;19.45;;;12.60;;
74100;SDS011;62462;52.530;21.682;2022-10-17T02:05:09;19.80;;;12.63;;
74100;SDS011;62462;52.530;21.682;2022-10-17T02:07:34;17.33;;;11.93;;
74100;SDS011;62462;52.530;21.682;2022-10-17T02:10:01;21.00;;;11.77;;
74100;SDS011;62462;52.530;21.682;2022-10-17T02:12:44;18.48;;;12.05;;
74100;SDS011;62462;52.530;21.682;2022-10-17T02:24:20;18.60;;;13.10;;
74100;SDS011;62462;52.530;21.682;2022-10-17T02:29:49;17.33;;;12.18;;
74100;SDS011;62462;52.530;21.682;2022-10-17T02:35:01;19.38;;;12.65;;
74100;SDS011;62462;52.530;21.682;2022-10-17T02:37:29;16.92;;;11.60;;
74100;SDS011;62462;52.530;21.682;2022-10-17T02:39:56;15.88;;;11.00;;
74100;SDS011;62462;52.530;21.682;2022-10-17T02:42:24;21.15;;;12.07;;
74100;SDS011;62462;52.530;21.682;2022-10-17T02:44:52;17.17;;;12.57;;
74100;SDS011;62462;52.530;21.682;2022-10-17T02:47:26;19.20;;;13.15;;
74100;SDS011;62462;52.530;21.682;2022-10-17T02:49:56;21.90;;;13.85;;
74100;SDS011;62462;52.530;21.682;2022-10-17T02:55:17;19.42;;;13.05;;
74100;SDS011;62462;52.530;21.682;2022-10-17T02:57:44;17.65;;;12.00;;
74100;SDS011;62462;52.530;21.682;2022-10-17T03:00:11;19.58;;;12.63;;
74100;SDS011;62462;52.530;21.682;2022-10-17T03:02:40;20.15;;;12.98;;
74100;SDS011;62462;52.530;21.682;2022-10-17T03:05:17;20.92;;;11.82;;
74100;SDS011;62462;52.530;21.682;2022-10-17T03:07:48;14.85;;;11.10;;
74100;SDS011;62462;52.530;21.682;2022-10-17T03:10:14;17.45;;;11.80;;
74100;SDS011;62462;52.530;21.682;2022-10-17T03:12:40;16.38;;;12.27;;
74100;SDS011;62462;52.530;21.682;2022-10-17T03:15:05;16.98;;;11.35;;
74100;SDS011;62462;52.530;21.682;2022-10-17T03:17:32;16.92;;;12.07;;
74100;SDS011;62462;52.530;21.682;2022-10-17T03:19:57;16.45;;;11.98;;
74100;SDS011;62462;52.530;21.682;2022-10-17T03:22:23;19.08;;;12.38;;
74100;SDS011;62462;52.530;21.682;2022-10-17T03:24:49;17.83;;;13.07;;
74100;SDS011;62462;52.530;21.682;2022-10-17T03:27:14;18.65;;;12.60;;
74100;SDS011;62462;52.530;21.682;2022-10-17T03:29:40;16.20;;;11.85;;
74100;SDS011;62462;52.530;21.682;2022-10-17T03:32:06;17.00;;;12.88;;
74100;SDS011;62462;52.530;21.682;2022-10-17T03:34:32;18.02;;;12.73;;
74100;SDS011;62462;52.530;21.682;2022-10-17T03:36:57;19.45;;;14.02;;
74100;SDS011;62462;52.530;21.682;2022-10-17T03:39:23;25.02;;;13.30;;
74100;SDS011;62462;52.530;21.682;2022-10-17T03:41:49;21.33;;;14.63;;
74100;SDS011;62462;52.530;21.682;2022-10-17T03:44:14;23.60;;;13.98;;
74100;SDS011;62462;52.530;21.682;2022-10-17T03:46:40;19.80;;;13.38;;
74100;SDS011;62462;52.530;21.682;2022-10-17T03:49:07;18.45;;;12.77;;
74100;SDS011;62462;52.530;21.682;2022-10-17T03:51:33;17.67;;;11.35;;
74100;SDS011;62462;52.530;21.682;2022-10-17T03:53:59;18.83;;;11.43;;
74100;SDS011;62462;52.530;21.682;2022-10-17T03:56:25;12.98;;;9.93;;
74100;SDS011;62462;52.530;21.682;2022-10-17T03:58:52;13.55;;;9.32;;
74100;SDS011;62462;52.530;21.682;2022-10-17T04:01:18;18.48;;;10.40;;
74100;SDS011;62462;52.530;21.682;2022-10-17T04:03:48;12.40;;;9.15;;
74100;SDS011;62462;52.530;21.682;2022-10-17T04:06:15;14.32;;;9.55;;
74100;SDS011;62462;52.530;21.682;2022-10-17T04:08:41;15.43;;;10.55;;
74100;SDS011;62462;52.530;21.682;2022-10-17T04:11:07;15.50;;;10.45;;
74100;SDS011;62462;52.530;21.682;2022-10-17T04:13:35;13.65;;;10.05;;
74100;SDS011;62462;52.530;21.682;2022-10-17T04:16:02;17.92;;;10.73;;
74100;SDS011;62462;52.530;21.682;2022-10-17T04:18:30;15.52;;;11.30;;
74100;SDS011;62462;52.530;21.682;2022-10-17T04:20:56;15.88;;;11.18;;
74100;SDS011;62462;52.530;21.682;2022-10-17T04:23:22;16.92;;;11.20;;
74100;SDS011;62462;52.530;21.682;2022-10-17T04:25:47;20.98;;;12.57;;
74100;SDS011;62462;52.530;21.682;2022-10-17T04:28:13;15.15;;;10.70;;
74100;SDS011;62462;52.530;21.682;2022-10-17T04:30:39;18.60;;;12.57;;
74100;SDS011;62462;52.530;21.682;2022-10-17T04:33:05;16.48;;;11.75;;
74100;SDS011;62462;52.530;21.682;2022-10-17T04:35:31;17.90;;;12.25;;
74100;SDS011;62462;52.530;21.682;2022-10-17T04:37:57;16.40;;;12.00;;
74100;SDS011;62462;52.530;21.682;2022-10-17T04:40:22;18.10;;;11.88;;
74100;SDS011;62462;52.530;21.682;2022-10-17T04:42:48;20.48;;;13.75;;
74100;SDS011;62462;52.530;21.682;2022-10-17T04:45:14;18.95;;;13.15;;
74100;SDS011;62462;52.530;21.682;2022-10-17T04:47:40;19.98;;;13.35;;
74100;SDS011;62462;52.530;21.682;2022-10-17T04:50:05;18.60;;;12.85;;
74100;SDS011;62462;52.530;21.682;2022-10-17T04:52:33;18.42;;;12.95;;
74100;SDS011;62462;52.530;21.682;2022-10-17T04:55:01;20.92;;;13.38;;
74100;SDS011;62462;52.530;21.682;2022-10-17T04:57:28;18.45;;;13.15;;
74100;SDS011;62462;52.530;21.682;2022-10-17T04:59:54;19.08;;;12.52;;
74100;SDS011;62462;52.530;21.682;2022-10-17T05:02:19;21.55;;;14.77;;
74100;SDS011;62462;52.530;21.682;2022-10-17T05:04:45;18.92;;;13.65;;
74100;SDS011;62462;52.530;21.682;2022-10-17T05:07:11;18.08;;;12.90;;
74100;SDS011;62462;52.530;21.682;2022-10-17T05:09:36;21.02;;;14.10;;
74100;SDS011;62462;52.530;21.682;2022-10-17T05:12:02;23.70;;;13.38;;
74100;SDS011;62462;52.530;21.682;2022-10-17T05:14:28;20.90;;;14.00;;
74100;SDS011;62462;52.530;21.682;2022-10-17T05:16:54;17.05;;;12.23;;
74100;SDS011;62462;52.530;21.682;2022-10-17T05:19:19;17.23;;;12.23;;
74100;SDS011;62462;52.530;21.682;2022-10-17T05:21:45;19.88;;;12.38;;
74100;SDS011;62462;52.530;21.682;2022-10-17T05:24:12;20.40;;;14.48;;
74100;SDS011;62462;52.530;21.682;2022-10-17T05:26:38;22.65;;;14.07;;
74100;SDS011;62462;52.530;21.682;2022-10-17T05:29:04;21.73;;;13.68;;
74100;SDS011;62462;52.530;21.682;2022-10-17T05:31:30;24.35;;;15.40;;
74100;SDS011;62462;52.530;21.682;2022-10-17T05:33:59;25.88;;;15.38;;
74100;SDS011;62462;52.530;21.682;2022-10-17T05:36:26;19.48;;;13.30;;
74100;SDS011;62462;52.530;21.682;2022-10-17T05:38:52;23.23;;;14.52;;
74100;SDS011;62462;52.530;21.682;2022-10-17T05:41:18;24.48;;;14.13;;
74100;SDS011;62462;52.530;21.682;2022-10-17T05:43:44;18.05;;;12.60;;
74100;SDS011;62462;52.530;21.682;2022-10-17T05:46:10;21.55;;;13.77;;
74100;SDS011;62462;52.530;21.682;2022-10-17T05:48:36;19.55;;;13.70;;
74100;SDS011;62462;52.530;21.682;2022-10-17T05:51:06;20.17;;;14.30;;
74100;SDS011;62462;52.530;21.682;2022-10-17T05:53:34;21.35;;;14.35;;
74100;SDS011;62462;52.530;21.682;2022-10-17T05:56:02;20.42;;;14.75;;
74100;SDS011;62462;52.530;21.682;2022-10-17T05:58:30;20.42;;;15.00;;
74100;SDS011;62462;52.530;21.682;2022-10-17T06:01:01;21.35;;;15.40;;
74100;SDS011;62462;52.530;21.682;2022-10-17T06:03:29;21.63;;;15.80;;
74100;SDS011;62462;52.530;21.682;2022-10-17T06:05:55;21.98;;;14.95;;
74100;SDS011;62462;52.530;21.682;2022-10-17T06:08:26;23.90;;;15.32;;
74100;SDS011;62462;52.530;21.682;2022-10-17T06:10:52;22.58;;;15.57;;
74100;SDS011;62462;52.530;21.682;2022-10-17T06:13:18;24.35;;;15.68;;
74100;SDS011;62462;52.530;21.682;2022-10-17T06:15:43;25.92;;;16.20;;
74100;SDS011;62462;52.530;21.682;2022-10-17T06:18:09;24.98;;;16.55;;
74100;SDS011;62462;52.530;21.682;2022-10-17T06:20:35;24.33;;;16.48;;
74100;SDS011;62462;52.530;21.682;2022-10-17T06:23:01;24.65;;;16.50;;
74100;SDS011;62462;52.530;21.682;2022-10-17T06:25:29;19.77;;;14.95;;
74100;SDS011;62462;52.530;21.682;2022-10-17T06:27:55;25.75;;;17.42;;
74100;SDS011;62462;52.530;21.682;2022-10-17T06:30:21;26.92;;;16.60;;
74100;SDS011;62462;52.530;21.682;2022-10-17T06:32:47;20.20;;;15.10;;
74100;SDS011;62462;52.530;21.682;2022-10-17T06:35:13;20.60;;;15.15;;
74100;SDS011;62462;52.530;21.682;2022-10-17T06:37:39;24.25;;;16.88;;
74100;SDS011;62462;52.530;21.682;2022-10-17T06:40:05;23.58;;;16.35;;
74100;SDS011;62462;52.530;21.682;2022-10-17T06:42:33;26.42;;;17.50;;
74100;SDS011;62462;52.530;21.682;2022-10-17T06:44:58;24.15;;;16.40;;
74100;SDS011;62462;52.530;21.682;2022-10-17T06:47:24;26.05;;;18.17;;
74100;SDS011;62462;52.530;21.682;2022-10-17T06:49:50;33.65;;;18.02;;
74100;SDS011;62462;52.530;21.682;2022-10-17T06:52:15;27.05;;;18.20;;
74100;SDS011;62462;52.530;21.682;2022-10-17T06:54:42;25.25;;;17.10;;
74100;SDS011;62462;52.530;21.682;2022-10-17T06:57:08;21.42;;;15.55;;
74100;SDS011;62462;52.530;21.682;2022-10-17T06:59:34;21.80;;;15.93;;
74100;SDS011;62462;52.530;21.682;2022-10-17T07:02:00;23.80;;;16.00;;
74100;SDS011;62462;52.530;21.682;2022-10-17T07:04:26;22.58;;;15.93;;
74100;SDS011;62462;52.530;21.682;2022-10-17T07:06:52;25.33;;;17.05;;
74100;SDS011;62462;52.530;21.682;2022-10-17T07:09:18;23.42;;;15.88;;
74100;SDS011;62462;52.530;21.682;2022-10-17T07:11:44;23.92;;;16.08;;
74100;SDS011;62462;52.530;21.682;2022-10-17T07:14:10;24.73;;;16.23;;
74100;SDS011;62462;52.530;21.682;2022-10-17T07:16:35;25.70;;;17.35;;
74100;SDS011;62462;52.530;21.682;2022-10-17T07:19:01;23.63;;;17.02;;
74100;SDS011;62462;52.530;21.682;2022-10-17T07:21:27;25.08;;;17.42;;
74100;SDS011;62462;52.530;21.682;2022-10-17T07:23:53;23.90;;;16.48;;
74100;SDS011;62462;52.530;21.682;2022-10-17T07:26:19;22.83;;;16.50;;
74100;SDS011;62462;52.530;21.682;2022-10-17T07:28:46;24.67;;;17.30;;
74100;SDS011;62462;52.530;21.682;2022-10-17T07:31:15;22.75;;;16.42;;
74100;SDS011;62462;52.530;21.682;2022-10-17T07:33:43;27.52;;;17.02;;
74100;SDS011;62462;52.530;21.682;2022-10-17T07:36:10;25.25;;;16.80;;
74100;SDS011;62462;52.530;21.682;2022-10-17T07:38:36;24.83;;;16.20;;
74100;SDS011;62462;52.530;21.682;2022-10-17T07:41:03;24.73;;;16.67;;
74100;SDS011;62462;52.530;21.682;2022-10-17T07:43:30;25.27;;;16.13;;
74100;SDS011;62462;52.530;21.682;2022-10-17T07:45:56;19.88;;;15.32;;
74100;SDS011;62462;52.530;21.682;2022-10-17T07:48:22;23.25;;;14.82;;
74100;SDS011;62462;52.530;21.682;2022-10-17T07:50:48;24.15;;;14.85;;
74100;SDS011;62462;52.530;21.682;2022-10-17T07:53:14;21.48;;;14.63;;
74100;SDS011;62462;52.530;21.682;2022-10-17T07:55:41;22.30;;;15.70;;
74100;SDS011;62462;52.530;21.682;2022-10-17T07:58:08;21.25;;;15.32;;
74100;SDS011;62462;52.530;21.682;2022-10-17T08:00:35;20.40;;;14.35;;
74100;SDS011;62462;52.530;21.682;2022-10-17T08:03:01;19.63;;;14.60;;
74100;SDS011;62462;52.530;21.682;2022-10-17T08:05:28;20.95;;;14.65;;
74100;SDS011;62462;52.530;21.682;2022-10-17T08:07:54;25.30;;;17.17;;
74100;SDS011;62462;52.530;21.682;2022-10-17T08:10:20;26.20;;;16.75;;
74100;SDS011;62462;52.530;21.682;2022-10-17T08:12:46;22.85;;;16.95;;
74100;SDS011;62462;52.530;21.682;2022-10-17T08:15:12;21.85;;;15.93;;
74100;SDS011;62462;52.530;21.682;2022-10-17T08:17:38;21.40;;;16.02;;
74100;SDS011;62462;52.530;21.682;2022-10-17T08:20:04;22.17;;;15.48;;
74100;SDS011;62462;52.530;21.682;2022-10-17T08:22:30;23.35;;;16.33;;
74100;SDS011;62462;52.530;21.682;2022-10-17T08:24:57;20.60;;;14.60;;
74100;SDS011;62462;52.530;21.682;2022-10-17T08:27:23;28.25;;;16.73;;
74100;SDS011;62462;52.530;21.682;2022-10-17T08:29:51;20.98;;;16.27;;
74100;SDS011;62462;52.530;21.682;2022-10-17T08:32:18;21.08;;;15.60;;
74100;SDS011;62462;52.530;21.682;2022-10-17T08:34:45;20.23;;;15.13;;
74100;SDS011;62462;52.530;21.682;2022-10-17T08:37:11;20.75;;;15.07;;
74100;SDS011;62462;52.530;21.682;2022-10-17T08:39:40;20.70;;;14.77;;
74100;SDS011;62462;52.530;21.682;2022-10-17T08:44:56;20.75;;;14.75;;
74100;SDS011;62462;52.530;21.682;2022-10-17T08:47:34;19.58;;;14.48;;
74100;SDS011;62462;52.530;21.682;2022-10-17T08:50:03;19.00;;;12.70;;
74100;SDS011;62462;52.530;21.682;2022-10-17T08:58:02;20.10;;;14.75;;
74100;SDS011;62462;52.530;21.682;2022-10-17T09:00:36;21.40;;;14.40;;
74100;SDS011;62462;52.530;21.682;2022-10-17T09:05:40;19.42;;;14.82;;
74100;SDS011;62462;52.530;21.682;2022-10-17T09:08:33;18.70;;;14.40;;
74100;SDS011;62462;52.530;21.682;2022-10-17T09:11:13;22.35;;;15.77;;
74100;SDS011;62462;52.530;21.682;2022-10-17T09:17:13;19.85;;;14.38;;
74100;SDS011;62462;52.530;21.682;2022-10-17T09:19:58;22.15;;;15.98;;
74100;SDS011;62462;52.530;21.682;2022-10-17T09:22:27;19.67;;;14.13;;
74100;SDS011;62462;52.530;21.682;2022-10-17T09:24:59;20.58;;;14.07;;
74100;SDS011;62462;52.530;21.682;2022-10-17T09:32:46;17.17;;;12.80;;
74100;SDS011;62462;52.530;21.682;2022-10-17T09:35:12;21.08;;;14.93;;
74100;SDS011;62462;52.530;21.682;2022-10-17T09:37:39;19.60;;;13.13;;
74100;SDS011;62462;52.530;21.682;2022-10-17T09:40:06;18.08;;;14.05;;
74100;SDS011;62462;52.530;21.682;2022-10-17T09:42:37;18.88;;;14.30;;
74100;SDS011;62462;52.530;21.682;2022-10-17T09:45:13;20.17;;;12.80;;
74100;SDS011;62462;52.530;21.682;2022-10-17T09:47:59;20.67;;;14.15;;
74100;SDS011;62462;52.530;21.682;2022-10-17T09:52:55;22.13;;;14.02;;
74100;SDS011;62462;52.530;21.682;2022-10-17T09:58:07;16.10;;;12.18;;
74100;SDS011;62462;52.530;21.682;2022-10-17T10:00:35;20.75;;;14.85;;
74100;SDS011;62462;52.530;21.682;2022-10-17T10:06:18;16.95;;;13.30;;
74100;SDS011;62462;52.530;21.682;2022-10-17T10:11:15;15.35;;;12.82;;
74100;SDS011;62462;52.530;21.682;2022-10-17T10:13:42;18.85;;;12.35;;
74100;SDS011;62462;52.530;21.682;2022-10-17T10:18:48;18.65;;;12.80;;
74100;SDS011;62462;52.530;21.682;2022-10-17T10:26:24;17.40;;;13.13;;
74100;SDS011;62462;52.530;21.682;2022-10-17T10:28:53;14.52;;;11.45;;
74100;SDS011;62462;52.530;21.682;2022-10-17T10:31:26;15.27;;;11.80;;
74100;SDS011;62462;52.530;21.682;2022-10-17T10:33:54;17.80;;;12.48;;
74100;SDS011;62462;52.530;21.682;2022-10-17T10:36:20;16.55;;;12.45;;
74100;SDS011;62462;52.530;21.682;2022-10-17T10:38:51;18.80;;;12.60;;
74100;SDS011;62462;52.530;21.682;2022-10-17T10:41:19;17.67;;;12.93;;
74100;SDS011;62462;52.530;21.682;2022-10-17T10:43:46;19.23;;;12.63;;
74100;SDS011;62462;52.530;21.682;2022-10-17T10:46:24;16.35;;;11.98;;
74100;SDS011;62462;52.530;21.682;2022-10-17T10:51:28;19.35;;;12.80;;
74100;SDS011;62462;52.530;21.682;2022-10-17T10:54:16;16.38;;;12.65;;
74100;SDS011;62462;52.530;21.682;2022-10-17T10:57:06;16.52;;;13.23;;
74100;SDS011;62462;52.530;21.682;2022-10-17T11:05:15;22.23;;;13.57;;
74100;SDS011;62462;52.530;21.682;2022-10-17T11:07:59;21.10;;;14.60;;
74100;SDS011;62462;52.530;21.682;2022-10-17T11:13:10;19.92;;;12.75;;
74100;SDS011;62462;52.530;21.682;2022-10-17T11:18:21;14.93;;;11.98;;
74100;SDS011;62462;52.530;21.682;2022-10-17T11:20:55;15.15;;;12.00;;
74100;SDS011;62462;52.530;21.682;2022-10-17T11:23:53;18.15;;;12.95;;
74100;SDS011;62462;52.530;21.682;2022-10-17T11:26:28;14.77;;;12.00;;
74100;SDS011;62462;52.530;21.682;2022-10-17T11:28:57;17.52;;;12.35;;
74100;SDS011;62462;52.530;21.682;2022-10-17T11:31:46;16.95;;;12.02;;
74100;SDS011;62462;52.530;21.682;2022-10-17T11:34:24;16.30;;;12.35;;
74100;SDS011;62462;52.530;21.682;2022-10-17T11:36:52;16.67;;;12.77;;
74100;SDS011;62462;52.530;21.682;2022-10-17T11:41:56;17.48;;;12.15;;
74100;SDS011;62462;52.530;21.682;2022-10-17T11:44:33;19.25;;;12.90;;
74100;SDS011;62462;52.530;21.682;2022-10-17T11:47:05;20.40;;;13.25;;
74100;SDS011;62462;52.530;21.682;2022-10-17T11:49:35;16.30;;;11.82;;
74100;SDS011;62462;52.530;21.682;2022-10-17T11:55:00;17.80;;;14.02;;
74100;SDS011;62462;52.530;21.682;2022-10-17T12:03:31;17.48;;;12.63;;
74100;SDS011;62462;52.530;21.682;2022-10-17T12:09:15;16.83;;;12.45;;
74100;SDS011;62462;52.530;21.682;2022-10-17T12:17:30;15.65;;;12.05;;
74100;SDS011;62462;52.530;21.682;2022-10-17T12:25:58;18.83;;;11.68;;
74100;SDS011;62462;52.530;21.682;2022-10-17T12:31:02;17.40;;;12.43;;
74100;SDS011;62462;52.530;21.682;2022-10-17T12:33:57;15.00;;;11.98;;
74100;SDS011;62462;52.530;21.682;2022-10-17T12:49:46;16.27;;;11.38;;
74100;SDS011;62462;52.530;21.682;2022-10-17T12:54:44;15.52;;;12.18;;
74100;SDS011;62462;52.530;21.682;2022-10-17T13:00:26;29.95;;;12.07;;
74100;SDS011;62462;52.530;21.682;2022-10-17T13:02:52;14.93;;;11.15;;
74100;SDS011;62462;52.530;21.682;2022-10-17T13:05:29;16.60;;;11.00;;
74100;SDS011;62462;52.530;21.682;2022-10-17T13:08:02;16.45;;;12.20;;
74100;SDS011;62462;52.530;21.682;2022-10-17T13:10:35;21.65;;;12.65;;
74100;SDS011;62462;52.530;21.682;2022-10-17T13:15:47;18.75;;;12.32;;
74100;SDS011;62462;52.530;21.682;2022-10-17T13:18:18;18.17;;;10.95;;
74100;SDS011;62462;52.530;21.682;2022-10-17T13:20:56;18.65;;;11.73;;
74100;SDS011;62462;52.530;21.682;2022-10-17T13:23:38;18.80;;;12.63;;
74100;SDS011;62462;52.530;21.682;2022-10-17T13:26:15;16.50;;;11.25;;
74100;SDS011;62462;52.530;21.682;2022-10-17T13:29:02;16.08;;;12.02;;
74100;SDS011;62462;52.530;21.682;2022-10-17T13:31:37;14.48;;;11.20;;
74100;SDS011;62462;52.530;21.682;2022-10-17T13:34:15;19.05;;;11.27;;
74100;SDS011;62462;52.530;21.682;2022-10-17T13:36:42;18.13;;;11.73;;
74100;SDS011;62462;52.530;21.682;2022-10-17T13:39:12;15.15;;;10.75;;
74100;SDS011;62462;52.530;21.682;2022-10-17T13:41:41;13.80;;;10.55;;
74100;SDS011;62462;52.530;21.682;2022-10-17T13:44:10;15.70;;;10.27;;
74100;SDS011;62462;52.530;21.682;2022-10-17T13:46:44;17.80;;;11.57;;
74100;SDS011;62462;52.530;21.682;2022-10-17T13:49:14;14.60;;;10.63;;
74100;SDS011;62462;52.530;21.682;2022-10-17T13:51:50;14.73;;;11.27;;
74100;SDS011;62462;52.530;21.682;2022-10-17T13:56:57;15.90;;;11.32;;
74100;SDS011;62462;52.530;21.682;2022-10-17T13:59:26;16.00;;;11.82;;
74100;SDS011;62462;52.530;21.682;2022-10-17T14:01:56;15.35;;;11.35;;
74100;SDS011;62462;52.530;21.682;2022-10-17T14:04:25;19.17;;;11.52;;
74100;SDS011;62462;52.530;21.682;2022-10-17T14:06:51;16.52;;;11.15;;
74100;SDS011;62462;52.530;21.682;2022-10-17T14:09:21;13.63;;;11.23;;
74100;SDS011;62462;52.530;21.682;2022-10-17T14:11:57;17.38;;;11.65;;
74100;SDS011;62462;52.530;21.682;2022-10-17T14:14:27;16.17;;;10.93;;
74100;SDS011;62462;52.530;21.682;2022-10-17T14:16:54;14.15;;;10.88;;
74100;SDS011;62462;52.530;21.682;2022-10-17T14:19:26;17.50;;;11.52;;
74100;SDS011;62462;52.530;21.682;2022-10-17T14:24:45;14.93;;;10.40;;
74100;SDS011;62462;52.530;21.682;2022-10-17T14:29:53;14.32;;;11.07;;
74100;SDS011;62462;52.530;21.682;2022-10-17T14:32:24;17.40;;;12.32;;
74100;SDS011;62462;52.530;21.682;2022-10-17T14:34:58;18.30;;;12.75;;
74100;SDS011;62462;52.530;21.682;2022-10-17T14:37:31;18.88;;;12.35;;
74100;SDS011;62462;52.530;21.682;2022-10-17T14:40:16;16.80;;;11.80;;
74100;SDS011;62462;52.530;21.682;2022-10-17T14:42:44;16.25;;;11.80;;
74100;SDS011;62462;52.530;21.682;2022-10-17T14:45:14;15.13;;;11.10;;
74100;SDS011;62462;52.530;21.682;2022-10-17T14:47:55;13.90;;;10.85;;
74100;SDS011;62462;52.530;21.682;2022-10-17T14:50:27;15.20;;;11.05;;
74100;SDS011;62462;52.530;21.682;2022-10-17T14:53:05;15.55;;;11.95;;
74100;SDS011;62462;52.530;21.682;2022-10-17T14:55:32;17.05;;;13.10;;
74100;SDS011;62462;52.530;21.682;2022-10-17T14:57:59;18.88;;;13.50;;
74100;SDS011;62462;52.530;21.682;2022-10-17T15:00:26;18.67;;;12.70;;
74100;SDS011;62462;52.530;21.682;2022-10-17T15:02:52;17.35;;;12.63;;
74100;SDS011;62462;52.530;21.682;2022-10-17T15:05:19;19.75;;;12.70;;
74100;SDS011;62462;52.530;21.682;2022-10-17T15:07:47;19.50;;;12.38;;
74100;SDS011;62462;52.530;21.682;2022-10-17T15:10:32;18.55;;;13.05;;
74100;SDS011;62462;52.530;21.682;2022-10-17T15:13:00;19.23;;;12.82;;
74100;SDS011;62462;52.530;21.682;2022-10-17T15:15:27;19.30;;;13.35;;
74100;SDS011;62462;52.530;21.682;2022-10-17T15:17:54;17.48;;;12.55;;
74100;SDS011;62462;52.530;21.682;2022-10-17T15:20:20;19.20;;;13.07;;
74100;SDS011;62462;52.530;21.682;2022-10-17T15:22:50;18.63;;;12.63;;
74100;SDS011;62462;52.530;21.682;2022-10-17T15:25:17;17.73;;;13.02;;
74100;SDS011;62462;52.530;21.682;2022-10-17T15:27:43;22.20;;;14.02;;
74100;SDS011;62462;52.530;21.682;2022-10-17T15:30:42;21.73;;;14.68;;
74100;SDS011;62462;52.530;21.682;2022-10-17T15:33:01;24.05;;;14.32;;
74100;SDS011;62462;52.530;21.682;2022-10-17T15:35:26;21.75;;;14.40;;
74100;SDS011;62462;52.530;21.682;2022-10-17T15:37:53;25.83;;;15.95;;
74100;SDS011;62462;52.530;21.682;2022-10-17T15:40:23;29.25;;;16.73;;
74100;SDS011;62462;52.530;21.682;2022-10-17T15:42:52;28.75;;;17.50;;
74100;SDS011;62462;52.530;21.682;2022-10-17T15:45:18;28.23;;;17.42;;
74100;SDS011;62462;52.530;21.682;2022-10-17T15:47:51;23.67;;;16.85;;
74100;SDS011;62462;52.530;21.682;2022-10-17T15:50:23;25.98;;;16.15;;
74100;SDS011;62462;52.530;21.682;2022-10-17T15:52:48;22.13;;;15.88;;
74100;SDS011;62462;52.530;21.682;2022-10-17T15:55:17;20.55;;;15.93;;
74100;SDS011;62462;52.530;21.682;2022-10-17T15:57:44;20.65;;;15.38;;
74100;SDS011;62462;52.530;21.682;2022-10-17T16:00:13;18.45;;;14.48;;
74100;SDS011;62462;52.530;21.682;2022-10-17T16:02:44;22.63;;;14.57;;
74100;SDS011;62462;52.530;21.682;2022-10-17T16:07:40;27.20;;;16.10;;
74100;SDS011;62462;52.530;21.682;2022-10-17T16:10:07;28.25;;;18.60;;
74100;SDS011;62462;52.530;21.682;2022-10-17T16:12:34;26.60;;;18.02;;
74100;SDS011;62462;52.530;21.682;2022-10-17T16:15:05;28.08;;;17.35;;
74100;SDS011;62462;52.530;21.682;2022-10-17T16:17:36;26.25;;;17.70;;
74100;SDS011;62462;52.530;21.682;2022-10-17T16:20:02;28.58;;;18.30;;
74100;SDS011;62462;52.530;21.682;2022-10-17T16:22:31;31.27;;;19.35;;
74100;SDS011;62462;52.530;21.682;2022-10-17T16:25:00;26.40;;;19.02;;
74100;SDS011;62462;52.530;21.682;2022-10-17T16:27:34;26.80;;;16.98;;
74100;SDS011;62462;52.530;21.682;2022-10-17T16:30:00;24.75;;;17.35;;
74100;SDS011;62462;52.530;21.682;2022-10-17T16:32:28;25.05;;;19.65;;
74100;SDS011;62462;52.530;21.682;2022-10-17T16:34:53;32.05;;;19.50;;
74100;SDS011;62462;52.530;21.682;2022-10-17T16:37:19;25.88;;;19.98;;
74100;SDS011;62462;52.530;21.682;2022-10-17T16:39:45;30.17;;;20.40;;
74100;SDS011;62462;52.530;21.682;2022-10-17T16:42:16;28.65;;;18.45;;
74100;SDS011;62462;52.530;21.682;2022-10-17T16:44:45;25.10;;;18.48;;
74100;SDS011;62462;52.530;21.682;2022-10-17T16:47:11;25.95;;;18.25;;
74100;SDS011;62462;52.530;21.682;2022-10-17T16:49:37;25.58;;;18.42;;